Wells Town, Mississippi
Current Conditions -  °F | °C
As of 5:53 PM on Friday 28 Nov 2014 (Local Time) from KHBG Reporting Station
Clear Clear  
Wind Chill: 48°   Ceiling: Unl
Heat Index: 48°   Visibility: 10mi
Dew Point: 35°   Wind: 0mph
Humidity: 61%   Direction: NA
Pressure: 30.29"   Gusts: NA
Location:  31.0601°N, 89.4815°W
Report Text: KHBG 282353Z AUTO 00000KT 10SM CLR 09/02 A3029 RMK AO2 SLP256 T00890017 10161 20089 56004
Loading
Personal Weather Stations






























Interactive Weather Map New forecast layout! Learn more

10-Day Weather Forecast

Advertisements
Track Severe Weather on mobile